Terminal Aerodrome Forecast
Issued by NWS

Home | Current Version | Previous Version | Graphics & Text | Print | Product List | Glossary On
Versions: 1 2 3 4 5 6 7 8 9 10 11 12 13 14 15 16 17 18 19 20 21 22
000
FTUS43 KOAX 170246 AAA
TAFCDR
TAF AMD
KCDR 170246Z 1703/1724 12005KT P6SM BKN015
     FM170600 18003KT P6SM OVC015
     FM171200 12003KT P6SM OVC007=

USA.gov is the U.S. government's official web portal to all federal, state and local government web resources and services.